sensor_id;sensor_type;location;lat;lon;timestamp;P1;durP1;ratioP1;P2;durP2;ratioP2
6561;SDS011;3314;50.890;4.722;2023-12-14T00:01:49;37.7;;;14.3;;
6561;SDS011;3314;50.890;4.722;2023-12-14T00:03:49;37.5;;;14.9;;
6561;SDS011;3314;50.890;4.722;2023-12-14T00:05:48;41.2;;;15.0;;
6561;SDS011;3314;50.890;4.722;2023-12-14T00:07:48;34.8;;;14.1;;
6561;SDS011;3314;50.890;4.722;2023-12-14T00:09:48;36.0;;;13.9;;
6561;SDS011;3314;50.890;4.722;2023-12-14T00:11:47;42.2;;;16.2;;
6561;SDS011;3314;50.890;4.722;2023-12-14T00:13:47;41.8;;;14.3;;
6561;SDS011;3314;50.890;4.722;2023-12-14T00:15:49;43.8;;;16.2;;
6561;SDS011;3314;50.890;4.722;2023-12-14T00:17:48;38.3;;;14.5;;
6561;SDS011;3314;50.890;4.722;2023-12-14T00:19:48;45.7;;;17.1;;
6561;SDS011;3314;50.890;4.722;2023-12-14T00:21:48;40.3;;;14.6;;
6561;SDS011;3314;50.890;4.722;2023-12-14T00:23:47;43.4;;;16.5;;
6561;SDS011;3314;50.890;4.722;2023-12-14T00:25:47;47.4;;;17.4;;
6561;SDS011;3314;50.890;4.722;2023-12-14T00:27:47;40.1;;;14.7;;
6561;SDS011;3314;50.890;4.722;2023-12-14T00:29:46;48.7;;;17.3;;
6561;SDS011;3314;50.890;4.722;2023-12-14T00:31:46;40.8;;;16.8;;
6561;SDS011;3314;50.890;4.722;2023-12-14T00:33:46;42.5;;;16.5;;
6561;SDS011;3314;50.890;4.722;2023-12-14T00:35:45;40.8;;;16.7;;
6561;SDS011;3314;50.890;4.722;2023-12-14T00:37:45;39.5;;;14.8;;
6561;SDS011;3314;50.890;4.722;2023-12-14T00:39:45;37.3;;;14.9;;
6561;SDS011;3314;50.890;4.722;2023-12-14T00:41:44;41.3;;;16.3;;
6561;SDS011;3314;50.890;4.722;2023-12-14T00:43:44;44.5;;;17.8;;
6561;SDS011;3314;50.890;4.722;2023-12-14T00:45:44;51.5;;;16.7;;
6561;SDS011;3314;50.890;4.722;2023-12-14T00:47:43;49.0;;;18.1;;
6561;SDS011;3314;50.890;4.722;2023-12-14T00:49:43;45.9;;;16.9;;
6561;SDS011;3314;50.890;4.722;2023-12-14T00:51:43;42.1;;;15.9;;
6561;SDS011;3314;50.890;4.722;2023-12-14T00:53:42;39.3;;;16.2;;
6561;SDS011;3314;50.890;4.722;2023-12-14T00:55:42;44.2;;;16.7;;
6561;SDS011;3314;50.890;4.722;2023-12-14T00:57:42;46.0;;;16.6;;
6561;SDS011;3314;50.890;4.722;2023-12-14T00:59:41;42.6;;;16.7;;
6561;SDS011;3314;50.890;4.722;2023-12-14T01:01:41;45.0;;;17.9;;
6561;SDS011;3314;50.890;4.722;2023-12-14T01:03:41;43.7;;;17.0;;
6561;SDS011;3314;50.890;4.722;2023-12-14T01:05:41;47.6;;;17.0;;
6561;SDS011;3314;50.890;4.722;2023-12-14T01:07:40;42.1;;;16.1;;
6561;SDS011;3314;50.890;4.722;2023-12-14T01:09:40;47.8;;;17.0;;
6561;SDS011;3314;50.890;4.722;2023-12-14T01:11:40;38.1;;;15.7;;
6561;SDS011;3314;50.890;4.722;2023-12-14T01:13:39;43.9;;;16.3;;
6561;SDS011;3314;50.890;4.722;2023-12-14T01:15:39;50.6;;;17.7;;
6561;SDS011;3314;50.890;4.722;2023-12-14T01:17:39;48.0;;;17.5;;
6561;SDS011;3314;50.890;4.722;2023-12-14T01:19:39;47.6;;;17.6;;
6561;SDS011;3314;50.890;4.722;2023-12-14T01:21:39;48.4;;;18.0;;
6561;SDS011;3314;50.890;4.722;2023-12-14T01:23:39;47.4;;;15.8;;
6561;SDS011;3314;50.890;4.722;2023-12-14T01:25:38;47.2;;;18.0;;
6561;SDS011;3314;50.890;4.722;2023-12-14T01:27:38;50.0;;;17.3;;
6561;SDS011;3314;50.890;4.722;2023-12-14T01:29:38;42.1;;;17.5;;
6561;SDS011;3314;50.890;4.722;2023-12-14T01:31:38;46.7;;;18.5;;
6561;SDS011;3314;50.890;4.722;2023-12-14T01:33:37;41.8;;;16.2;;
6561;SDS011;3314;50.890;4.722;2023-12-14T01:35:37;51.7;;;18.4;;
6561;SDS011;3314;50.890;4.722;2023-12-14T01:37:37;50.7;;;19.1;;
6561;SDS011;3314;50.890;4.722;2023-12-14T01:39:36;49.6;;;17.3;;
6561;SDS011;3314;50.890;4.722;2023-12-14T01:41:36;47.2;;;16.7;;
6561;SDS011;3314;50.890;4.722;2023-12-14T01:43:35;46.7;;;16.9;;
6561;SDS011;3314;50.890;4.722;2023-12-14T01:45:35;44.3;;;16.2;;
6561;SDS011;3314;50.890;4.722;2023-12-14T01:47:35;48.7;;;16.2;;
6561;SDS011;3314;50.890;4.722;2023-12-14T01:49:34;49.6;;;17.6;;
6561;SDS011;3314;50.890;4.722;2023-12-14T01:51:35;47.0;;;16.5;;
6561;SDS011;3314;50.890;4.722;2023-12-14T01:53:35;42.6;;;14.6;;
6561;SDS011;3314;50.890;4.722;2023-12-14T01:55:35;40.3;;;15.4;;
6561;SDS011;3314;50.890;4.722;2023-12-14T01:57:34;45.6;;;16.1;;
6561;SDS011;3314;50.890;4.722;2023-12-14T01:59:34;46.2;;;15.7;;
6561;SDS011;3314;50.890;4.722;2023-12-14T02:01:37;47.2;;;14.7;;
6561;SDS011;3314;50.890;4.722;2023-12-14T02:03:26;40.3;;;15.1;;
6561;SDS011;3314;50.890;4.722;2023-12-14T02:05:26;35.9;;;12.5;;
6561;SDS011;3314;50.890;4.722;2023-12-14T02:07:25;37.6;;;13.7;;
6561;SDS011;3314;50.890;4.722;2023-12-14T02:09:26;34.4;;;12.5;;
6561;SDS011;3314;50.890;4.722;2023-12-14T02:11:25;31.6;;;11.7;;
6561;SDS011;3314;50.890;4.722;2023-12-14T02:13:26;32.6;;;12.2;;
6561;SDS011;3314;50.890;4.722;2023-12-14T02:15:26;35.2;;;12.2;;
6561;SDS011;3314;50.890;4.722;2023-12-14T02:17:25;34.1;;;12.2;;
6561;SDS011;3314;50.890;4.722;2023-12-14T02:19:25;30.6;;;11.0;;
6561;SDS011;3314;50.890;4.722;2023-12-14T02:21:25;32.7;;;11.7;;
6561;SDS011;3314;50.890;4.722;2023-12-14T02:23:24;33.3;;;11.0;;
6561;SDS011;3314;50.890;4.722;2023-12-14T02:25:24;33.1;;;11.3;;
6561;SDS011;3314;50.890;4.722;2023-12-14T02:27:24;34.6;;;11.5;;
6561;SDS011;3314;50.890;4.722;2023-12-14T02:29:23;27.8;;;10.6;;
6561;SDS011;3314;50.890;4.722;2023-12-14T02:31:23;25.7;;;10.3;;
6561;SDS011;3314;50.890;4.722;2023-12-14T02:33:23;33.0;;;10.3;;
6561;SDS011;3314;50.890;4.722;2023-12-14T02:35:23;28.0;;;9.7;;
6561;SDS011;3314;50.890;4.722;2023-12-14T02:37:22;29.6;;;10.4;;
6561;SDS011;3314;50.890;4.722;2023-12-14T02:39:22;28.7;;;10.8;;
6561;SDS011;3314;50.890;4.722;2023-12-14T02:41:22;24.7;;;7.9;;
6561;SDS011;3314;50.890;4.722;2023-12-14T02:43:23;30.2;;;10.4;;
6561;SDS011;3314;50.890;4.722;2023-12-14T02:45:23;24.3;;;10.4;;
6561;SDS011;3314;50.890;4.722;2023-12-14T02:47:23;31.8;;;10.2;;
6561;SDS011;3314;50.890;4.722;2023-12-14T02:49:22;28.6;;;10.6;;
6561;SDS011;3314;50.890;4.722;2023-12-14T02:51:22;24.1;;;8.7;;
6561;SDS011;3314;50.890;4.722;2023-12-14T02:53:22;26.4;;;10.0;;
6561;SDS011;3314;50.890;4.722;2023-12-14T02:55:21;26.0;;;10.5;;
6561;SDS011;3314;50.890;4.722;2023-12-14T02:57:21;29.6;;;10.5;;
6561;SDS011;3314;50.890;4.722;2023-12-14T02:59:21;28.2;;;10.7;;
6561;SDS011;3314;50.890;4.722;2023-12-14T03:01:21;27.6;;;11.4;;
6561;SDS011;3314;50.890;4.722;2023-12-14T03:03:21;29.9;;;10.7;;
6561;SDS011;3314;50.890;4.722;2023-12-14T03:05:20;33.8;;;10.5;;
6561;SDS011;3314;50.890;4.722;2023-12-14T03:07:20;28.8;;;10.8;;
6561;SDS011;3314;50.890;4.722;2023-12-14T03:09:20;29.5;;;11.3;;
6561;SDS011;3314;50.890;4.722;2023-12-14T03:11:21;21.8;;;9.2;;
6561;SDS011;3314;50.890;4.722;2023-12-14T03:13:20;32.1;;;11.6;;
6561;SDS011;3314;50.890;4.722;2023-12-14T03:15:20;28.5;;;10.4;;
6561;SDS011;3314;50.890;4.722;2023-12-14T03:17:20;30.5;;;10.7;;
6561;SDS011;3314;50.890;4.722;2023-12-14T03:19:20;25.6;;;10.0;;
6561;SDS011;3314;50.890;4.722;2023-12-14T03:21:19;28.9;;;11.4;;
6561;SDS011;3314;50.890;4.722;2023-12-14T03:23:19;31.1;;;11.5;;
6561;SDS011;3314;50.890;4.722;2023-12-14T03:25:19;27.5;;;10.4;;
6561;SDS011;3314;50.890;4.722;2023-12-14T03:27:20;26.6;;;9.8;;
6561;SDS011;3314;50.890;4.722;2023-12-14T03:29:10;32.7;;;11.1;;
6561;SDS011;3314;50.890;4.722;2023-12-14T03:31:10;30.1;;;10.1;;
6561;SDS011;3314;50.890;4.722;2023-12-14T03:33:10;28.5;;;10.7;;
6561;SDS011;3314;50.890;4.722;2023-12-14T03:35:09;28.1;;;10.2;;
6561;SDS011;3314;50.890;4.722;2023-12-14T03:37:09;28.5;;;10.4;;
6561;SDS011;3314;50.890;4.722;2023-12-14T03:39:09;32.3;;;11.3;;
6561;SDS011;3314;50.890;4.722;2023-12-14T03:41:09;29.5;;;11.2;;
6561;SDS011;3314;50.890;4.722;2023-12-14T03:43:08;28.0;;;9.6;;
6561;SDS011;3314;50.890;4.722;2023-12-14T03:45:08;28.2;;;10.4;;
6561;SDS011;3314;50.890;4.722;2023-12-14T03:47:08;27.1;;;11.5;;
6561;SDS011;3314;50.890;4.722;2023-12-14T03:49:09;24.4;;;9.8;;
6561;SDS011;3314;50.890;4.722;2023-12-14T03:51:09;26.7;;;10.5;;
6561;SDS011;3314;50.890;4.722;2023-12-14T03:53:08;25.9;;;9.6;;
6561;SDS011;3314;50.890;4.722;2023-12-14T03:55:09;23.6;;;9.5;;
6561;SDS011;3314;50.890;4.722;2023-12-14T03:57:09;24.3;;;9.9;;
6561;SDS011;3314;50.890;4.722;2023-12-14T03:59:08;23.0;;;9.5;;
6561;SDS011;3314;50.890;4.722;2023-12-14T04:01:08;23.3;;;9.3;;
6561;SDS011;3314;50.890;4.722;2023-12-14T04:03:03;25.2;;;9.3;;
6561;SDS011;3314;50.890;4.722;2023-12-14T04:05:04;28.3;;;8.9;;
6561;SDS011;3314;50.890;4.722;2023-12-14T04:07:04;21.7;;;9.3;;
6561;SDS011;3314;50.890;4.722;2023-12-14T04:09:04;23.9;;;10.5;;
6561;SDS011;3314;50.890;4.722;2023-12-14T04:11:04;22.2;;;9.5;;
6561;SDS011;3314;50.890;4.722;2023-12-14T04:13:03;30.3;;;10.3;;
6561;SDS011;3314;50.890;4.722;2023-12-14T04:15:03;22.3;;;8.9;;
6561;SDS011;3314;50.890;4.722;2023-12-14T04:17:03;23.3;;;9.5;;
6561;SDS011;3314;50.890;4.722;2023-12-14T04:19:03;19.8;;;7.6;;
6561;SDS011;3314;50.890;4.722;2023-12-14T04:21:03;18.0;;;7.9;;
6561;SDS011;3314;50.890;4.722;2023-12-14T04:23:03;22.2;;;8.3;;
6561;SDS011;3314;50.890;4.722;2023-12-14T04:25:03;22.0;;;8.1;;
6561;SDS011;3314;50.890;4.722;2023-12-14T04:27:03;19.8;;;7.8;;
6561;SDS011;3314;50.890;4.722;2023-12-14T04:29:03;20.3;;;9.1;;
6561;SDS011;3314;50.890;4.722;2023-12-14T04:31:02;22.6;;;8.2;;
6561;SDS011;3314;50.890;4.722;2023-12-14T04:33:02;25.2;;;8.9;;
6561;SDS011;3314;50.890;4.722;2023-12-14T04:35:02;21.2;;;8.3;;
6561;SDS011;3314;50.890;4.722;2023-12-14T04:37:02;21.6;;;7.9;;
6561;SDS011;3314;50.890;4.722;2023-12-14T04:39:02;21.0;;;8.1;;
6561;SDS011;3314;50.890;4.722;2023-12-14T04:41:02;25.3;;;9.2;;
6561;SDS011;3314;50.890;4.722;2023-12-14T04:43:01;20.7;;;8.9;;
6561;SDS011;3314;50.890;4.722;2023-12-14T04:45:01;21.1;;;8.7;;
6561;SDS011;3314;50.890;4.722;2023-12-14T04:47:01;15.9;;;7.1;;
6561;SDS011;3314;50.890;4.722;2023-12-14T04:49:00;18.0;;;7.9;;
6561;SDS011;3314;50.890;4.722;2023-12-14T04:51:00;21.6;;;9.3;;
6561;SDS011;3314;50.890;4.722;2023-12-14T04:53:00;19.7;;;8.5;;
6561;SDS011;3314;50.890;4.722;2023-12-14T04:54:59;21.4;;;9.2;;
6561;SDS011;3314;50.890;4.722;2023-12-14T04:56:59;21.5;;;9.0;;
6561;SDS011;3314;50.890;4.722;2023-12-14T04:58:59;19.4;;;8.0;;
6561;SDS011;3314;50.890;4.722;2023-12-14T05:00:59;21.9;;;8.6;;
6561;SDS011;3314;50.890;4.722;2023-12-14T05:02:59;19.8;;;8.7;;
6561;SDS011;3314;50.890;4.722;2023-12-14T05:04:59;19.1;;;8.3;;
6561;SDS011;3314;50.890;4.722;2023-12-14T05:06:58;20.0;;;9.1;;
6561;SDS011;3314;50.890;4.722;2023-12-14T05:08:59;21.7;;;9.0;;
6561;SDS011;3314;50.890;4.722;2023-12-14T05:10:59;21.6;;;9.2;;
6561;SDS011;3314;50.890;4.722;2023-12-14T05:12:59;21.3;;;8.5;;
6561;SDS011;3314;50.890;4.722;2023-12-14T05:14:58;19.5;;;8.4;;
6561;SDS011;3314;50.890;4.722;2023-12-14T05:16:58;24.2;;;9.7;;
6561;SDS011;3314;50.890;4.722;2023-12-14T05:18:58;22.6;;;8.7;;
6561;SDS011;3314;50.890;4.722;2023-12-14T05:20:57;22.0;;;9.2;;
6561;SDS011;3314;50.890;4.722;2023-12-14T05:22:57;17.0;;;8.0;;
6561;SDS011;3314;50.890;4.722;2023-12-14T05:24:57;18.2;;;8.2;;
6561;SDS011;3314;50.890;4.722;2023-12-14T05:26:56;17.9;;;7.9;;
6561;SDS011;3314;50.890;4.722;2023-12-14T05:28:56;20.0;;;8.1;;
6561;SDS011;3314;50.890;4.722;2023-12-14T05:30:56;21.2;;;9.3;;
6561;SDS011;3314;50.890;4.722;2023-12-14T05:32:55;21.5;;;8.4;;
6561;SDS011;3314;50.890;4.722;2023-12-14T05:34:55;21.9;;;9.2;;
6561;SDS011;3314;50.890;4.722;2023-12-14T05:36:55;18.7;;;9.2;;
6561;SDS011;3314;50.890;4.722;2023-12-14T05:38:54;20.8;;;8.8;;
6561;SDS011;3314;50.890;4.722;2023-12-14T05:40:54;22.9;;;9.7;;
6561;SDS011;3314;50.890;4.722;2023-12-14T05:42:55;22.2;;;8.7;;
6561;SDS011;3314;50.890;4.722;2023-12-14T05:44:45;19.6;;;9.3;;
6561;SDS011;3314;50.890;4.722;2023-12-14T05:46:45;21.3;;;9.2;;
6561;SDS011;3314;50.890;4.722;2023-12-14T05:48:44;20.1;;;9.1;;
6561;SDS011;3314;50.890;4.722;2023-12-14T05:50:44;20.9;;;9.0;;
6561;SDS011;3314;50.890;4.722;2023-12-14T05:52:46;17.8;;;8.0;;
6561;SDS011;3314;50.890;4.722;2023-12-14T05:54:45;19.3;;;8.8;;
6561;SDS011;3314;50.890;4.722;2023-12-14T05:56:45;22.5;;;9.1;;
6561;SDS011;3314;50.890;4.722;2023-12-14T05:58:45;23.9;;;9.6;;
6561;SDS011;3314;50.890;4.722;2023-12-14T06:00:50;19.7;;;9.0;;
6561;SDS011;3314;50.890;4.722;2023-12-14T06:02:49;26.8;;;9.4;;
6561;SDS011;3314;50.890;4.722;2023-12-14T06:04:49;20.5;;;9.4;;
6561;SDS011;3314;50.890;4.722;2023-12-14T06:06:48;21.0;;;9.1;;
6561;SDS011;3314;50.890;4.722;2023-12-14T06:08:49;24.8;;;10.3;;
6561;SDS011;3314;50.890;4.722;2023-12-14T06:10:48;23.5;;;9.7;;
6561;SDS011;3314;50.890;4.722;2023-12-14T06:12:48;19.2;;;9.1;;
6561;SDS011;3314;50.890;4.722;2023-12-14T06:14:47;21.4;;;9.3;;
6561;SDS011;3314;50.890;4.722;2023-12-14T06:16:47;23.1;;;9.8;;
6561;SDS011;3314;50.890;4.722;2023-12-14T06:18:47;23.5;;;9.4;;
6561;SDS011;3314;50.890;4.722;2023-12-14T06:20:47;24.0;;;9.0;;
6561;SDS011;3314;50.890;4.722;2023-12-14T06:22:47;21.2;;;10.2;;
6561;SDS011;3314;50.890;4.722;2023-12-14T06:24:46;21.8;;;8.4;;
6561;SDS011;3314;50.890;4.722;2023-12-14T06:26:40;19.6;;;9.6;;
6561;SDS011;3314;50.890;4.722;2023-12-14T06:28:39;22.5;;;10.6;;
6561;SDS011;3314;50.890;4.722;2023-12-14T06:30:39;21.1;;;8.9;;
6561;SDS011;3314;50.890;4.722;2023-12-14T06:32:39;21.8;;;9.8;;
6561;SDS011;3314;50.890;4.722;2023-12-14T06:34:39;21.7;;;9.1;;
6561;SDS011;3314;50.890;4.722;2023-12-14T06:36:41;21.7;;;9.9;;
6561;SDS011;3314;50.890;4.722;2023-12-14T06:38:41;18.6;;;9.6;;
6561;SDS011;3314;50.890;4.722;2023-12-14T06:40:41;22.3;;;9.0;;
6561;SDS011;3314;50.890;4.722;2023-12-14T06:42:43;20.9;;;9.0;;
6561;SDS011;3314;50.890;4.722;2023-12-14T06:44:32;21.1;;;9.3;;
6561;SDS011;3314;50.890;4.722;2023-12-14T06:46:38;25.3;;;10.3;;
6561;SDS011;3314;50.890;4.722;2023-12-14T06:48:38;20.5;;;9.1;;
6561;SDS011;3314;50.890;4.722;2023-12-14T06:50:37;21.9;;;9.8;;
6561;SDS011;3314;50.890;4.722;2023-12-14T06:52:37;20.2;;;8.9;;
6561;SDS011;3314;50.890;4.722;2023-12-14T06:54:37;22.5;;;9.8;;
6561;SDS011;3314;50.890;4.722;2023-12-14T06:56:36;20.9;;;9.2;;
6561;SDS011;3314;50.890;4.722;2023-12-14T06:58:36;21.4;;;9.3;;
6561;SDS011;3314;50.890;4.722;2023-12-14T07:00:38;22.5;;;10.7;;
6561;SDS011;3314;50.890;4.722;2023-12-14T07:02:38;23.8;;;10.4;;
6561;SDS011;3314;50.890;4.722;2023-12-14T07:04:37;23.1;;;9.6;;
6561;SDS011;3314;50.890;4.722;2023-12-14T07:06:37;20.2;;;8.8;;
6561;SDS011;3314;50.890;4.722;2023-12-14T07:08:37;23.6;;;9.7;;
6561;SDS011;3314;50.890;4.722;2023-12-14T07:10:36;21.7;;;8.9;;
6561;SDS011;3314;50.890;4.722;2023-12-14T07:12:36;20.6;;;9.6;;
6561;SDS011;3314;50.890;4.722;2023-12-14T07:14:36;23.5;;;10.4;;
6561;SDS011;3314;50.890;4.722;2023-12-14T07:16:36;23.1;;;10.1;;
6561;SDS011;3314;50.890;4.722;2023-12-14T07:18:36;20.3;;;8.7;;
6561;SDS011;3314;50.890;4.722;2023-12-14T07:20:26;23.6;;;10.6;;
6561;SDS011;3314;50.890;4.722;2023-12-14T07:22:25;23.6;;;10.2;;
6561;SDS011;3314;50.890;4.722;2023-12-14T07:24:25;25.5;;;10.8;;
6561;SDS011;3314;50.890;4.722;2023-12-14T07:26:24;18.7;;;8.6;;
6561;SDS011;3314;50.890;4.722;2023-12-14T07:28:24;23.6;;;10.4;;
6561;SDS011;3314;50.890;4.722;2023-12-14T07:30:24;21.4;;;9.6;;
6561;SDS011;3314;50.890;4.722;2023-12-14T07:32:23;24.8;;;10.7;;
6561;SDS011;3314;50.890;4.722;2023-12-14T07:34:25;21.6;;;9.1;;
6561;SDS011;3314;50.890;4.722;2023-12-14T07:36:24;22.5;;;9.5;;
6561;SDS011;3314;50.890;4.722;2023-12-14T07:38:24;23.0;;;10.6;;
6561;SDS011;3314;50.890;4.722;2023-12-14T07:40:24;22.9;;;9.8;;
6561;SDS011;3314;50.890;4.722;2023-12-14T07:42:23;24.1;;;10.6;;
6561;SDS011;3314;50.890;4.722;2023-12-14T07:44:25;31.9;;;10.5;;
6561;SDS011;3314;50.890;4.722;2023-12-14T07:46:25;26.2;;;10.7;;
6561;SDS011;3314;50.890;4.722;2023-12-14T07:48:24;25.2;;;9.7;;
6561;SDS011;3314;50.890;4.722;2023-12-14T07:50:24;23.6;;;9.8;;
6561;SDS011;3314;50.890;4.722;2023-12-14T07:52:24;24.0;;;9.1;;
6561;SDS011;3314;50.890;4.722;2023-12-14T07:54:26;24.4;;;10.0;;
6561;SDS011;3314;50.890;4.722;2023-12-14T07:56:28;22.8;;;9.0;;
6561;SDS011;3314;50.890;4.722;2023-12-14T07:58:27;27.6;;;9.7;;
6561;SDS011;3314;50.890;4.722;2023-12-14T08:00:27;24.7;;;10.6;;
6561;SDS011;3314;50.890;4.722;2023-12-14T08:02:27;30.9;;;10.9;;
6561;SDS011;3314;50.890;4.722;2023-12-14T08:04:26;21.3;;;9.8;;
6561;SDS011;3314;50.890;4.722;2023-12-14T08:06:26;27.2;;;9.5;;
6561;SDS011;3314;50.890;4.722;2023-12-14T08:08:26;22.7;;;9.9;;
6561;SDS011;3314;50.890;4.722;2023-12-14T08:10:26;22.9;;;9.6;;
6561;SDS011;3314;50.890;4.722;2023-12-14T08:12:26;23.3;;;9.5;;
6561;SDS011;3314;50.890;4.722;2023-12-14T08:14:15;26.9;;;9.2;;
6561;SDS011;3314;50.890;4.722;2023-12-14T08:16:17;23.8;;;10.4;;
6561;SDS011;3314;50.890;4.722;2023-12-14T08:18:17;28.6;;;9.5;;
6561;SDS011;3314;50.890;4.722;2023-12-14T08:20:17;26.3;;;9.5;;
6561;SDS011;3314;50.890;4.722;2023-12-14T08:22:17;22.2;;;9.9;;
6561;SDS011;3314;50.890;4.722;2023-12-14T08:24:16;26.2;;;11.1;;
6561;SDS011;3314;50.890;4.722;2023-12-14T08:26:16;24.9;;;9.1;;
6561;SDS011;3314;50.890;4.722;2023-12-14T08:28:16;26.8;;;10.7;;
6561;SDS011;3314;50.890;4.722;2023-12-14T08:30:15;25.6;;;10.8;;
6561;SDS011;3314;50.890;4.722;2023-12-14T08:32:15;22.5;;;9.7;;
6561;SDS011;3314;50.890;4.722;2023-12-14T08:34:15;21.4;;;8.4;;
6561;SDS011;3314;50.890;4.722;2023-12-14T08:36:15;25.7;;;9.6;;
6561;SDS011;3314;50.890;4.722;2023-12-14T08:38:15;23.1;;;8.8;;
6561;SDS011;3314;50.890;4.722;2023-12-14T08:40:14;23.1;;;9.1;;
6561;SDS011;3314;50.890;4.722;2023-12-14T08:42:14;21.8;;;9.3;;
6561;SDS011;3314;50.890;4.722;2023-12-14T08:44:14;25.4;;;9.4;;
6561;SDS011;3314;50.890;4.722;2023-12-14T08:46:14;22.4;;;9.5;;
6561;SDS011;3314;50.890;4.722;2023-12-14T08:48:13;20.7;;;9.1;;
6561;SDS011;3314;50.890;4.722;2023-12-14T08:50:13;24.2;;;8.6;;
6561;SDS011;3314;50.890;4.722;2023-12-14T08:52:14;29.3;;;9.5;;
6561;SDS011;3314;50.890;4.722;2023-12-14T08:54:14;20.2;;;8.8;;
6561;SDS011;3314;50.890;4.722;2023-12-14T08:56:14;19.7;;;8.0;;
6561;SDS011;3314;50.890;4.722;2023-12-14T08:58:13;29.5;;;8.8;;
6561;SDS011;3314;50.890;4.722;2023-12-14T09:00:13;24.9;;;8.8;;
6561;SDS011;3314;50.890;4.722;2023-12-14T09:02:13;20.6;;;8.9;;
6561;SDS011;3314;50.890;4.722;2023-12-14T09:04:13;24.5;;;9.4;;
6561;SDS011;3314;50.890;4.722;2023-12-14T09:06:13;25.3;;;9.0;;
6561;SDS011;3314;50.890;4.722;2023-12-14T09:08:13;24.2;;;9.2;;
6561;SDS011;3314;50.890;4.722;2023-12-14T09:10:12;22.1;;;7.5;;
6561;SDS011;3314;50.890;4.722;2023-12-14T09:12:12;22.7;;;8.8;;
6561;SDS011;3314;50.890;4.722;2023-12-14T09:14:12;20.6;;;8.9;;
6561;SDS011;3314;50.890;4.722;2023-12-14T09:16:12;22.2;;;8.7;;
6561;SDS011;3314;50.890;4.722;2023-12-14T09:18:12;21.9;;;8.6;;
6561;SDS011;3314;50.890;4.722;2023-12-14T09:20:12;17.9;;;7.8;;
6561;SDS011;3314;50.890;4.722;2023-12-14T09:22:12;20.1;;;7.8;;
6561;SDS011;3314;50.890;4.722;2023-12-14T09:24:11;25.9;;;9.6;;
6561;SDS011;3314;50.890;4.722;2023-12-14T09:26:11;22.1;;;8.6;;
6561;SDS011;3314;50.890;4.722;2023-12-14T09:28:01;16.3;;;7.3;;
6561;SDS011;3314;50.890;4.722;2023-12-14T09:30:00;23.5;;;9.3;;
6561;SDS011;3314;50.890;4.722;2023-12-14T09:32:00;17.5;;;8.0;;
6561;SDS011;3314;50.890;4.722;2023-12-14T09:34:00;19.5;;;8.0;;
6561;SDS011;3314;50.890;4.722;2023-12-14T09:36:00;24.5;;;8.1;;
6561;SDS011;3314;50.890;4.722;2023-12-14T09:38:00;20.4;;;7.4;;
6561;SDS011;3314;50.890;4.722;2023-12-14T09:39:59;19.1;;;8.4;;
6561;SDS011;3314;50.890;4.722;2023-12-14T09:42:01;20.0;;;7.0;;
6561;SDS011;3314;50.890;4.722;2023-12-14T09:44:03;18.8;;;7.7;;
6561;SDS011;3314;50.890;4.722;2023-12-14T09:46:02;20.9;;;7.6;;
6561;SDS011;3314;50.890;4.722;2023-12-14T09:48:03;17.2;;;7.5;;
6561;SDS011;3314;50.890;4.722;2023-12-14T09:50:04;16.0;;;6.1;;
6561;SDS011;3314;50.890;4.722;2023-12-14T09:52:03;16.1;;;6.1;;
6561;SDS011;3314;50.890;4.722;2023-12-14T09:54:03;16.4;;;6.9;;
6561;SDS011;3314;50.890;4.722;2023-12-14T09:56:03;16.8;;;6.5;;
6561;SDS011;3314;50.890;4.722;2023-12-14T09:58:03;15.0;;;5.9;;
6561;SDS011;3314;50.890;4.722;2023-12-14T10:00:06;18.1;;;5.9;;
6561;SDS011;3314;50.890;4.722;2023-12-14T10:01:59;14.0;;;6.1;;
6561;SDS011;3314;50.890;4.722;2023-12-14T10:04:07;14.5;;;5.0;;
6561;SDS011;3314;50.890;4.722;2023-12-14T10:05:55;12.1;;;4.9;;
6561;SDS011;3314;50.890;4.722;2023-12-14T10:07:55;15.2;;;5.7;;
6561;SDS011;3314;50.890;4.722;2023-12-14T10:09:56;14.3;;;4.6;;
6561;SDS011;3314;50.890;4.722;2023-12-14T10:12:01;14.8;;;5.2;;
6561;SDS011;3314;50.890;4.722;2023-12-14T10:14:02;10.5;;;4.2;;
6561;SDS011;3314;50.890;4.722;2023-12-14T10:16:01;16.2;;;5.1;;
6561;SDS011;3314;50.890;4.722;2023-12-14T10:18:01;12.2;;;4.0;;
6561;SDS011;3314;50.890;4.722;2023-12-14T10:20:04;11.8;;;4.5;;
6561;SDS011;3314;50.890;4.722;2023-12-14T10:21:52;15.3;;;4.9;;
6561;SDS011;3314;50.890;4.722;2023-12-14T10:23:52;9.7;;;4.1;;
6561;SDS011;3314;50.890;4.722;2023-12-14T10:25:52;11.1;;;3.7;;
6561;SDS011;3314;50.890;4.722;2023-12-14T10:27:53;15.2;;;4.1;;
6561;SDS011;3314;50.890;4.722;2023-12-14T10:29:52;10.4;;;4.4;;
6561;SDS011;3314;50.890;4.722;2023-12-14T10:31:52;10.6;;;3.8;;
6561;SDS011;3314;50.890;4.722;2023-12-14T10:33:52;10.8;;;4.2;;
6561;SDS011;3314;50.890;4.722;2023-12-14T10:35:52;10.7;;;4.4;;
6561;SDS011;3314;50.890;4.722;2023-12-14T10:37:52;11.3;;;4.0;;
6561;SDS011;3314;50.890;4.722;2023-12-14T10:39:53;13.7;;;4.0;;
6561;SDS011;3314;50.890;4.722;2023-12-14T10:41:54;9.4;;;3.5;;
6561;SDS011;3314;50.890;4.722;2023-12-14T10:43:56;9.8;;;3.9;;
6561;SDS011;3314;50.890;4.722;2023-12-14T10:45:46;15.1;;;4.6;;
6561;SDS011;3314;50.890;4.722;2023-12-14T10:47:46;11.6;;;3.8;;
6561;SDS011;3314;50.890;4.722;2023-12-14T10:49:49;16.8;;;4.3;;
6561;SDS011;3314;50.890;4.722;2023-12-14T10:51:49;15.2;;;4.6;;
6561;SDS011;3314;50.890;4.722;2023-12-14T10:53:50;9.1;;;3.5;;
6561;SDS011;3314;50.890;4.722;2023-12-14T10:55:51;14.7;;;5.0;;
6561;SDS011;3314;50.890;4.722;2023-12-14T10:57:51;15.8;;;4.0;;
6561;SDS011;3314;50.890;4.722;2023-12-14T10:59:55;17.2;;;4.2;;
6561;SDS011;3314;50.890;4.722;2023-12-14T11:01:44;15.1;;;4.3;;
6561;SDS011;3314;50.890;4.722;2023-12-14T11:03:45;12.7;;;4.4;;
6561;SDS011;3314;50.890;4.722;2023-12-14T11:05:45;14.4;;;4.6;;
6561;SDS011;3314;50.890;4.722;2023-12-14T11:07:46;16.5;;;4.5;;
6561;SDS011;3314;50.890;4.722;2023-12-14T11:09:46;13.2;;;4.4;;
6561;SDS011;3314;50.890;4.722;2023-12-14T11:11:55;13.3;;;5.0;;
6561;SDS011;3314;50.890;4.722;2023-12-14T11:13:43;11.5;;;4.5;;
6561;SDS011;3314;50.890;4.722;2023-12-14T11:15:46;17.6;;;4.7;;
6561;SDS011;3314;50.890;4.722;2023-12-14T11:18:19;13.7;;;4.9;;
6561;SDS011;3314;50.890;4.722;2023-12-14T11:19:42;14.3;;;5.3;;
6561;SDS011;3314;50.890;4.722;2023-12-14T11:21:42;19.4;;;5.9;;
6561;SDS011;3314;50.890;4.722;2023-12-14T11:23:42;19.8;;;5.5;;
6561;SDS011;3314;50.890;4.722;2023-12-14T11:25:42;17.7;;;5.7;;
6561;SDS011;3314;50.890;4.722;2023-12-14T11:27:42;21.4;;;6.0;;
6561;SDS011;3314;50.890;4.722;2023-12-14T11:29:42;19.2;;;7.2;;
6561;SDS011;3314;50.890;4.722;2023-12-14T11:31:42;21.4;;;6.7;;
6561;SDS011;3314;50.890;4.722;2023-12-14T11:33:42;15.9;;;5.8;;
6561;SDS011;3314;50.890;4.722;2023-12-14T11:35:42;12.6;;;5.8;;
6561;SDS011;3314;50.890;4.722;2023-12-14T11:37:42;15.9;;;6.2;;
6561;SDS011;3314;50.890;4.722;2023-12-14T11:39:41;19.7;;;7.1;;
6561;SDS011;3314;50.890;4.722;2023-12-14T11:41:41;15.3;;;5.7;;
6561;SDS011;3314;50.890;4.722;2023-12-14T11:43:41;15.2;;;6.0;;
6561;SDS011;3314;50.890;4.722;2023-12-14T11:45:41;17.0;;;6.4;;
6561;SDS011;3314;50.890;4.722;2023-12-14T11:47:41;17.6;;;6.4;;
6561;SDS011;3314;50.890;4.722;2023-12-14T11:49:41;19.3;;;5.7;;
6561;SDS011;3314;50.890;4.722;2023-12-14T11:51:41;19.4;;;5.9;;
6561;SDS011;3314;50.890;4.722;2023-12-14T11:53:43;15.5;;;6.0;;
6561;SDS011;3314;50.890;4.722;2023-12-14T11:55:43;19.9;;;6.3;;
6561;SDS011;3314;50.890;4.722;2023-12-14T11:57:32;18.5;;;5.7;;
6561;SDS011;3314;50.890;4.722;2023-12-14T11:59:32;15.4;;;6.2;;
6561;SDS011;3314;50.890;4.722;2023-12-14T12:01:33;12.9;;;4.9;;
6561;SDS011;3314;50.890;4.722;2023-12-14T12:03:33;10.9;;;4.5;;
6561;SDS011;3314;50.890;4.722;2023-12-14T12:05:36;14.1;;;5.7;;
6561;SDS011;3314;50.890;4.722;2023-12-14T12:07:36;14.4;;;5.2;;
6561;SDS011;3314;50.890;4.722;2023-12-14T12:09:37;12.1;;;4.1;;
6561;SDS011;3314;50.890;4.722;2023-12-14T12:11:37;21.7;;;4.7;;
6561;SDS011;3314;50.890;4.722;2023-12-14T12:13:37;16.0;;;4.2;;
6561;SDS011;3314;50.890;4.722;2023-12-14T12:15:37;11.2;;;4.0;;
6561;SDS011;3314;50.890;4.722;2023-12-14T12:17:38;12.3;;;4.5;;
6561;SDS011;3314;50.890;4.722;2023-12-14T12:19:37;16.1;;;4.8;;
6561;SDS011;3314;50.890;4.722;2023-12-14T12:21:37;11.3;;;4.2;;
6561;SDS011;3314;50.890;4.722;2023-12-14T12:23:37;13.0;;;3.9;;
6561;SDS011;3314;50.890;4.722;2023-12-14T12:25:36;10.2;;;3.4;;
6561;SDS011;3314;50.890;4.722;2023-12-14T12:27:36;14.9;;;4.4;;
6561;SDS011;3314;50.890;4.722;2023-12-14T12:29:35;19.5;;;4.0;;
6561;SDS011;3314;50.890;4.722;2023-12-14T12:31:37;12.1;;;3.9;;